createdAt,value
2018-04-17T07:07:44.991Z,1003.19
2018-04-17T07:10:17.313Z,1003.34
2018-04-17T07:11:16.853Z,1003.33
2018-04-17T07:12:17.019Z,1003.36
2018-04-17T07:13:17.188Z,1003.30
2018-04-17T07:14:17.355Z,1003.29
2018-04-17T07:15:17.525Z,1003.32
2018-04-17T07:16:17.693Z,1003.41
2018-04-17T07:17:17.864Z,1003.39
2018-04-17T07:18:18.085Z,1003.47
2018-04-17T07:19:18.238Z,1003.45
2018-04-17T07:20:18.419Z,1003.34
2018-04-17T07:21:18.597Z,1003.32
2018-04-17T07:22:26.441Z,1003.40
2018-04-17T07:23:18.978Z,1003.30
2018-04-17T07:24:19.149Z,1003.29
2018-04-17T07:25:19.319Z,1003.36
2018-04-17T07:26:19.487Z,1003.31
2018-04-17T07:27:19.653Z,1003.28
2018-04-17T07:28:19.820Z,1003.29
2018-04-17T07:29:19.995Z,1003.28
2018-04-17T07:30:20.167Z,1003.33
2018-04-17T07:31:20.336Z,1003.35
2018-04-17T07:32:20.508Z,1003.37
2018-04-17T07:33:20.680Z,1003.31
2018-04-17T07:34:20.857Z,1003.36
2018-04-17T07:35:21.018Z,1003.38
2018-04-17T07:36:21.188Z,1003.36
2018-04-17T07:38:53.485Z,1003.22
2018-04-17T07:39:53.655Z,1003.21
2018-04-17T07:40:53.827Z,1003.23
2018-04-17T07:41:54.000Z,1003.27
2018-04-17T07:42:54.150Z,1003.28
2018-04-17T07:43:54.319Z,1003.30
2018-04-17T07:44:54.489Z,1003.25
2018-04-17T07:45:54.659Z,1003.24
2018-04-17T07:46:54.841Z,1003.28
2018-04-17T07:47:55.018Z,1003.25
2018-04-17T07:48:55.189Z,1003.25
2018-04-17T07:49:55.360Z,1003.34
2018-04-17T07:50:55.523Z,1003.26
2018-04-17T07:51:55.696Z,1003.20
2018-04-17T07:52:55.886Z,1003.26
2018-04-17T07:55:38.451Z,1003.31
2018-04-17T07:56:38.613Z,1003.35
2018-04-17T07:57:38.793Z,1003.34
2018-04-17T07:58:38.961Z,1003.39
2018-04-17T07:59:39.132Z,1003.43
2018-04-17T08:00:39.296Z,1003.36
2018-04-17T08:01:39.473Z,1003.33
2018-04-17T08:02:39.640Z,1003.34
2018-04-17T08:03:39.819Z,1003.36
2018-04-17T08:04:39.992Z,1003.32
2018-04-17T08:05:40.161Z,1003.28
2018-04-17T08:06:40.334Z,1003.29
2018-04-17T08:07:40.496Z,1003.28
2018-04-17T08:08:40.674Z,1003.31
2018-04-17T08:09:40.852Z,1003.31
2018-04-17T08:12:23.123Z,1003.30
2018-04-17T08:13:23.289Z,1003.40
2018-04-17T08:14:23.463Z,1003.46
2018-04-17T08:15:23.632Z,1003.49
2018-04-17T08:16:23.812Z,1003.55
2018-04-17T08:17:23.976Z,1003.56
2018-04-17T08:18:24.147Z,1003.58
2018-04-17T08:19:24.317Z,1003.52
2018-04-17T08:20:24.484Z,1003.46
2018-04-17T08:21:24.665Z,1003.41
2018-04-17T08:22:32.505Z,1003.29
2018-04-17T08:23:25.047Z,1003.28
2018-04-17T08:24:25.219Z,1003.26
2018-04-17T08:25:25.398Z,1003.22
2018-04-17T08:26:25.588Z,1003.29
2018-04-17T08:27:25.765Z,1003.32
2018-04-17T08:28:25.936Z,1003.27
2018-04-17T08:29:26.111Z,1003.31
2018-04-17T08:30:27.250Z,1003.28
2018-04-17T08:31:26.469Z,1003.29
2018-04-17T08:32:26.634Z,1003.26
2018-04-17T08:33:26.808Z,1003.26
2018-04-17T08:34:26.979Z,1003.26
2018-04-17T08:35:27.150Z,1003.23
2018-04-17T08:36:27.329Z,1003.21
2018-04-17T08:39:09.902Z,1003.09
2018-04-17T08:40:10.079Z,1003.15
2018-04-17T08:41:11.149Z,1003.14
2018-04-17T08:42:10.439Z,1003.17
2018-04-17T08:43:10.609Z,1003.17
2018-04-17T08:44:10.770Z,1003.10
2018-04-17T08:45:10.957Z,1003.12
2018-04-17T08:46:19.071Z,1003.12
2018-04-17T08:47:11.235Z,1003.15
2018-04-17T08:48:11.404Z,1003.12
2018-04-17T08:49:11.580Z,1003.13
2018-04-17T08:50:11.750Z,1003.12
2018-04-17T08:51:11.922Z,1003.12
2018-04-17T08:52:12.088Z,1003.15
2018-04-17T08:53:12.268Z,1003.18
2018-04-17T08:54:12.432Z,1003.16
2018-04-17T08:55:12.603Z,1003.17
2018-04-17T08:56:12.788Z,1003.16
2018-04-17T08:57:12.960Z,1003.18
2018-04-17T08:58:13.128Z,1003.22
2018-04-17T08:59:13.302Z,1003.21
2018-04-17T09:00:13.473Z,1003.22
2018-04-17T09:02:45.755Z,1003.29
2018-04-17T09:03:45.929Z,1003.30
2018-04-17T09:04:46.098Z,1003.30
2018-04-17T09:05:46.267Z,1003.31
2018-04-17T09:06:46.437Z,1003.29
2018-04-17T09:07:46.830Z,1003.33
2018-04-17T09:08:46.785Z,1003.37
2018-04-17T09:09:46.963Z,1003.41
2018-04-17T09:10:47.132Z,1003.34
2018-04-17T09:11:47.323Z,1003.40
2018-04-17T09:12:47.473Z,1003.45
2018-04-17T09:13:47.644Z,1003.41
2018-04-17T09:14:47.815Z,1003.41
2018-04-17T09:15:47.985Z,1003.47
2018-04-17T09:16:48.168Z,1003.50
2018-04-17T09:19:20.469Z,1003.51
2018-04-17T09:20:20.644Z,1003.48
2018-04-17T09:21:20.810Z,1003.47
2018-04-17T09:22:20.983Z,1003.44
2018-04-17T09:23:21.154Z,1003.43
2018-04-17T09:24:21.352Z,1003.41
2018-04-17T09:25:21.526Z,1003.45
2018-04-17T09:26:21.695Z,1003.44
2018-04-17T09:27:21.869Z,1003.45
2018-04-17T09:28:22.050Z,1003.48
2018-04-17T09:29:22.266Z,1003.42
2018-04-17T09:30:22.384Z,1003.38
2018-04-17T09:31:22.779Z,1003.38
2018-04-17T09:32:22.740Z,1003.39
2018-04-17T09:33:22.910Z,1003.39
2018-04-17T09:36:05.260Z,1003.43
2018-04-17T09:37:05.377Z,1003.44
2018-04-17T09:38:05.551Z,1003.45
2018-04-17T09:39:05.727Z,1003.48
2018-04-17T09:40:13.852Z,1003.49
2018-04-17T09:41:06.014Z,1003.53
2018-04-17T09:42:06.197Z,1003.50
2018-04-17T09:43:06.362Z,1003.53
2018-04-17T09:44:06.533Z,1003.54
2018-04-17T09:45:06.709Z,1003.58
2018-04-17T09:46:06.889Z,1003.59
2018-04-17T09:47:07.063Z,1003.55
2018-04-17T09:48:07.237Z,1003.58
2018-04-17T09:49:07.413Z,1003.59
2018-04-17T09:50:07.586Z,1003.60
2018-04-17T09:51:07.764Z,1003.54
2018-04-17T09:52:08.744Z,1003.63
2018-04-17T09:53:08.168Z,1003.64
2018-04-17T09:54:08.347Z,1003.67
2018-04-17T09:58:17.036Z,1003.51
2018-04-17T09:59:17.208Z,1003.51
2018-04-17T10:00:17.382Z,1003.57
2018-04-17T10:01:17.559Z,1003.59
2018-04-17T10:02:17.733Z,1003.56
2018-04-17T10:03:17.908Z,1003.46
2018-04-17T10:04:18.090Z,1003.44
2018-04-17T10:05:18.262Z,1003.49
2018-04-17T10:06:18.450Z,1003.52
2018-04-17T10:07:18.610Z,1003.58
2018-04-17T10:08:18.788Z,1003.48
2018-04-17T10:09:18.961Z,1003.47
2018-04-17T10:10:19.124Z,1003.44
2018-04-17T10:11:19.299Z,1003.43
2018-04-17T10:12:19.472Z,1003.48
2018-04-17T10:15:02.369Z,1003.55
2018-04-17T10:16:02.170Z,1003.50
2018-04-17T10:17:02.345Z,1003.51
2018-04-17T10:18:02.555Z,1003.53
2018-04-17T10:19:02.703Z,1003.45
2018-04-17T10:20:02.894Z,1003.45
2018-04-17T10:21:03.065Z,1003.45
2018-04-17T10:22:03.238Z,1003.45
2018-04-17T10:23:03.409Z,1003.41
2018-04-17T10:24:03.581Z,1003.40
2018-04-17T10:26:45.868Z,1003.45
2018-04-17T10:27:46.902Z,1003.45
2018-04-17T10:28:46.209Z,1003.44
2018-04-17T10:29:46.372Z,1003.40
2018-04-17T10:30:46.530Z,1003.40
2018-04-17T10:31:46.730Z,1003.34
2018-04-17T10:32:54.652Z,1003.29
2018-04-17T10:33:47.097Z,1003.36
2018-04-17T10:34:48.926Z,1003.36
2018-04-17T10:35:54.821Z,1003.32
2018-04-17T10:36:47.493Z,1003.30
2018-04-17T10:37:47.807Z,1003.31
2018-04-17T10:38:47.806Z,1003.35
2018-04-17T10:39:48.033Z,1003.31
2018-04-17T10:40:48.178Z,1003.28
2018-04-17T10:41:48.349Z,1003.36
2018-04-17T10:42:48.518Z,1003.31
2018-04-17T10:43:48.688Z,1003.25
2018-04-17T10:44:56.533Z,1003.29
2018-04-17T10:45:49.098Z,1003.22
2018-04-17T10:46:49.273Z,1003.26
2018-04-17T10:47:49.445Z,1003.18
2018-04-17T10:48:57.492Z,1003.17
2018-04-17T10:49:49.782Z,1003.15
2018-04-17T10:50:50.438Z,1003.09
2018-04-17T10:51:50.176Z,1003.08
2018-04-17T10:52:50.432Z,1003.04
2018-04-17T10:53:50.581Z,1003.03
2018-04-17T10:54:50.869Z,1003.04
2018-04-17T10:55:50.940Z,1002.99
2018-04-17T10:56:51.105Z,1003.07
2018-04-17T10:57:51.281Z,1003.08
2018-04-17T10:58:52.395Z,1003.07
2018-04-17T10:59:51.656Z,1003.02
2018-04-17T11:00:51.815Z,1003.05
2018-04-17T11:01:53.021Z,1003.01
2018-04-17T11:02:52.175Z,1003.07
2018-04-17T11:08:42.821Z,1002.94
2018-04-17T11:09:42.996Z,1002.96
2018-04-17T11:10:43.165Z,1003.00
2018-04-17T11:11:43.371Z,1003.01
2018-04-17T11:12:43.513Z,1003.01
2018-04-17T11:15:16.342Z,1002.98
2018-04-17T11:16:15.728Z,1003.00
2018-04-17T11:17:15.832Z,1003.01
2018-04-17T11:18:23.933Z,1002.95
2018-04-17T11:19:16.109Z,1002.96
2018-04-17T11:20:16.277Z,1002.97
2018-04-17T11:21:16.439Z,1002.96
2018-04-17T11:22:16.641Z,1002.95
2018-04-17T11:23:16.810Z,1003.00
2018-04-17T11:24:17.064Z,1002.99
2018-04-17T11:25:17.122Z,1002.99
2018-04-17T11:26:17.289Z,1003.02
2018-04-17T11:27:17.529Z,1002.98
2018-04-17T11:28:17.619Z,1002.97
2018-04-17T11:29:17.795Z,1002.91
2018-04-17T11:30:17.965Z,1002.94
2018-04-17T11:31:18.145Z,1002.85
2018-04-17T11:32:18.303Z,1002.89
2018-04-17T11:36:39.593Z,1003.04
2018-04-17T11:37:39.782Z,1003.05
2018-04-17T11:38:39.956Z,1003.05
2018-04-17T11:39:40.120Z,1003.06
2018-04-17T11:40:47.726Z,1003.05
2018-04-17T11:41:40.393Z,1003.01
2018-04-17T11:42:40.738Z,1003.01
2018-04-17T11:43:40.838Z,1002.94
2018-04-17T11:44:40.954Z,1002.92
2018-04-17T11:45:41.113Z,1002.87
2018-04-17T11:46:41.292Z,1002.88
2018-04-17T11:47:41.463Z,1002.85
2018-04-17T11:48:42.454Z,1002.87
2018-04-17T11:49:49.597Z,1002.91
2018-04-17T11:50:41.885Z,1002.89
2018-04-17T11:51:42.072Z,1002.91
2018-04-17T11:52:42.216Z,1002.92
2018-04-17T11:53:42.396Z,1002.89
2018-04-17T11:54:42.582Z,1002.87
2018-04-17T11:55:42.752Z,1002.92
2018-04-17T11:56:43.079Z,1002.88
2018-04-17T11:57:43.325Z,1002.85
2018-04-17T11:58:43.246Z,1002.83
2018-04-17T11:59:43.419Z,1002.83
2018-04-17T12:00:43.641Z,1002.88
2018-04-17T12:01:43.809Z,1002.81
2018-04-17T12:04:16.403Z,1002.80
2018-04-17T12:05:16.614Z,1002.79
2018-04-17T12:06:16.780Z,1002.77
2018-04-17T12:07:16.977Z,1002.85
2018-04-17T12:08:17.154Z,1002.84
2018-04-17T12:09:17.327Z,1002.83
2018-04-17T12:10:17.494Z,1002.85
2018-04-17T12:11:17.664Z,1002.85
2018-04-17T12:12:17.846Z,1002.85
2018-04-17T12:13:18.029Z,1002.89
2018-04-17T12:14:18.194Z,1002.89
2018-04-17T12:15:18.374Z,1002.88
2018-04-17T12:16:18.566Z,1002.87
2018-04-17T12:17:27.392Z,1002.83
2018-04-17T12:18:18.929Z,1002.87
2018-04-17T12:19:19.103Z,1002.86
2018-04-17T12:20:19.278Z,1002.84
2018-04-17T12:21:19.478Z,1002.87
2018-04-17T12:22:27.563Z,1002.86
2018-04-17T12:23:19.782Z,1002.88
2018-04-17T12:24:19.907Z,1002.87
2018-04-17T12:25:20.112Z,1002.89
2018-04-17T12:26:21.217Z,1002.87
2018-04-17T12:27:20.512Z,1002.86
2018-04-17T12:28:20.917Z,1002.86
2018-04-17T12:29:20.917Z,1002.90
2018-04-17T12:30:21.100Z,1002.84
2018-04-17T12:31:21.321Z,1002.81
2018-04-17T12:32:22.594Z,1002.82
2018-04-17T12:33:21.630Z,1002.86
2018-04-17T12:34:21.794Z,1002.77
2018-04-17T12:35:22.002Z,1002.82
2018-04-17T12:36:22.372Z,1002.80
2018-04-17T12:37:22.330Z,1002.77
2018-04-17T12:41:36.887Z,1002.75
2018-04-17T12:42:37.060Z,1002.74
2018-04-17T12:43:37.229Z,1002.72
2018-04-17T12:44:37.398Z,1002.71
2018-04-17T12:45:38.407Z,1002.77
2018-04-17T12:46:37.705Z,1002.77
2018-04-17T12:47:38.418Z,1002.76
2018-04-17T12:48:38.099Z,1002.78
2018-04-17T12:49:38.422Z,1002.71
2018-04-17T12:50:38.413Z,1002.74
2018-04-17T12:51:46.863Z,1002.70
2018-04-17T12:52:38.671Z,1002.72
2018-04-17T12:53:39.398Z,1002.70
2018-04-17T12:54:39.857Z,1002.71
2018-04-17T12:55:39.156Z,1002.76
2018-04-17T12:56:39.321Z,1002.73
2018-04-17T12:57:39.487Z,1002.73
2018-04-17T12:58:39.797Z,1002.75
2018-04-17T12:59:39.866Z,1002.73
2018-04-17T13:00:40.040Z,1002.69
2018-04-17T13:01:40.200Z,1002.69
2018-04-17T13:02:48.334Z,1002.71
2018-04-17T13:03:40.547Z,1002.72
2018-04-17T13:04:40.739Z,1002.77
2018-04-17T13:05:40.805Z,1002.71
2018-04-17T13:06:48.806Z,1002.73
2018-04-17T13:07:41.167Z,1002.73
2018-04-17T13:08:41.433Z,1002.75
2018-04-17T13:09:41.458Z,1002.73
2018-04-17T13:10:41.687Z,1002.76
2018-04-17T13:11:41.744Z,1002.75
2018-04-17T13:12:42.008Z,1002.74
2018-04-17T13:13:42.315Z,1002.80
2018-04-17T13:14:42.257Z,1002.75
2018-04-17T13:15:42.484Z,1002.75
2018-04-17T13:16:42.640Z,1002.74
2018-04-17T13:17:42.847Z,1002.72
2018-04-17T13:18:43.018Z,1002.80
2018-04-17T13:19:43.196Z,1002.79
2018-04-17T13:20:43.415Z,1002.73
2018-04-17T13:23:16.001Z,1002.77
2018-04-17T13:24:16.169Z,1002.78
2018-04-17T13:25:16.446Z,1002.72
2018-04-17T13:26:16.538Z,1002.75
2018-04-17T13:27:27.096Z,1002.77
2018-04-17T13:28:16.851Z,1002.76
2018-04-17T13:29:17.861Z,1002.73
2018-04-17T13:30:17.469Z,1002.73
2018-04-17T13:31:17.346Z,1002.76
2018-04-17T13:32:17.556Z,1002.73
2018-04-17T13:33:17.730Z,1002.77
2018-04-17T13:34:17.921Z,1002.76
2018-04-17T13:35:20.748Z,1002.75
2018-04-17T13:36:18.313Z,1002.71
2018-04-17T13:37:18.474Z,1002.75
2018-04-17T13:38:18.650Z,1002.75
2018-04-17T13:39:18.824Z,1002.76
2018-04-17T13:40:18.991Z,1002.71
2018-04-17T13:41:19.173Z,1002.70
2018-04-17T13:42:27.308Z,1002.68
2018-04-17T13:43:19.472Z,1002.68
2018-04-17T13:44:19.644Z,1002.67
2018-04-17T13:45:19.905Z,1002.69
2018-04-17T13:46:19.944Z,1002.73
2018-04-17T13:47:20.775Z,1002.69
2018-04-17T13:48:20.319Z,1002.74
2018-04-17T13:49:20.493Z,1002.69
2018-04-17T13:50:27.835Z,1002.64
2018-04-17T13:51:21.040Z,1002.59
2018-04-17T13:52:21.085Z,1002.63
2018-04-17T13:53:21.246Z,1002.63
2018-04-17T13:54:21.416Z,1002.60
2018-04-17T13:55:21.837Z,1002.60
2018-04-17T13:56:21.760Z,1002.64
2018-04-17T13:57:21.973Z,1002.67
2018-04-17T13:58:22.199Z,1002.63
2018-04-17T14:00:54.339Z,1002.60
2018-04-17T14:01:54.510Z,1002.59
2018-04-17T14:02:54.682Z,1002.61
2018-04-17T14:03:54.851Z,1002.64
2018-04-17T14:04:55.027Z,1002.66
2018-04-17T14:05:55.212Z,1002.61
2018-04-17T14:06:55.382Z,1002.66
2018-04-17T14:07:55.554Z,1002.64
2018-04-17T14:08:55.717Z,1002.60
2018-04-17T14:09:55.920Z,1002.59
2018-04-17T14:12:38.197Z,1002.62
2018-04-17T14:13:38.439Z,1002.56
2018-04-17T14:14:38.496Z,1002.61
2018-04-17T14:15:38.656Z,1002.62
2018-04-17T14:16:39.461Z,1002.61
2018-04-17T14:17:39.015Z,1002.64
2018-04-17T14:18:39.392Z,1002.64
2018-04-17T14:19:46.766Z,1002.64
2018-04-17T14:20:39.430Z,1002.69
2018-04-17T14:21:39.599Z,1002.70
2018-04-17T14:22:39.786Z,1002.68
2018-04-17T14:23:40.742Z,1002.69
2018-04-17T14:24:40.164Z,1002.70
2018-04-17T14:25:40.334Z,1002.67
2018-04-17T14:26:40.504Z,1002.66
2018-04-17T14:27:40.675Z,1002.65
2018-04-17T14:28:40.852Z,1002.70
2018-04-17T14:29:41.024Z,1002.69
2018-04-17T14:30:49.468Z,1002.63
2018-04-17T14:31:48.551Z,1002.67
2018-04-17T14:32:41.588Z,1002.61
2018-04-17T14:33:41.763Z,1002.61
2018-04-17T14:34:41.934Z,1002.62
2018-04-17T14:35:42.105Z,1002.58
2018-04-17T14:36:42.272Z,1002.56
2018-04-17T14:37:42.447Z,1002.57
2018-04-17T14:38:42.619Z,1002.59
2018-04-17T14:39:50.257Z,1002.62
2018-04-17T14:40:42.915Z,1002.56
2018-04-17T14:41:43.133Z,1002.59
2018-04-17T14:42:43.248Z,1002.62
2018-04-17T14:43:43.448Z,1002.63
2018-04-17T14:44:43.648Z,1002.62
2018-04-17T14:45:43.767Z,1002.60
2018-04-17T14:46:43.937Z,1002.63
2018-04-17T14:47:44.112Z,1002.60
2018-04-17T14:48:44.284Z,1002.60
2018-04-17T14:49:44.508Z,1002.61
2018-04-17T14:50:44.610Z,1002.59
2018-04-17T14:51:52.497Z,1002.62
2018-04-17T14:54:18.364Z,1002.61
2018-04-17T14:55:18.481Z,1002.57
2018-04-17T14:56:18.652Z,1002.58
2018-04-17T14:57:20.548Z,1002.61
2018-04-17T14:58:18.966Z,1002.64
2018-04-17T14:59:19.217Z,1002.60
2018-04-17T15:00:22.038Z,1002.61
2018-04-17T15:01:27.937Z,1002.62
2018-04-17T15:02:19.635Z,1002.61
2018-04-17T15:03:19.819Z,1002.58
2018-04-17T15:04:19.994Z,1002.61
2018-04-17T15:05:20.162Z,1002.61
2018-04-17T15:06:20.334Z,1002.67
2018-04-17T15:07:20.502Z,1002.69
2018-04-17T15:08:20.712Z,1002.60
2018-04-17T15:09:20.886Z,1002.69
2018-04-17T15:10:21.014Z,1002.63
2018-04-17T15:11:22.018Z,1002.66
2018-04-17T15:12:21.330Z,1002.64
2018-04-17T15:13:22.107Z,1002.61
2018-04-17T15:15:54.020Z,1002.64
2018-04-17T15:16:54.201Z,1002.61
2018-04-17T15:17:54.371Z,1002.65
2018-04-17T15:18:54.536Z,1002.64
2018-04-17T15:19:54.702Z,1002.61
2018-04-17T15:20:54.877Z,1002.59
2018-04-17T15:22:02.264Z,1002.60
2018-04-17T15:22:55.178Z,1002.56
2018-04-17T15:23:55.353Z,1002.61
2018-04-17T15:24:55.525Z,1002.56
2018-04-17T15:25:55.736Z,1002.63
2018-04-17T15:26:55.880Z,1002.58
2018-04-17T15:27:56.057Z,1002.63
2018-04-17T15:28:56.265Z,1002.60
2018-04-17T15:29:56.411Z,1002.62
2018-04-17T15:30:56.575Z,1002.57
2018-04-17T15:31:56.754Z,1002.61
2018-04-17T15:32:56.929Z,1002.58
2018-04-17T15:34:05.221Z,1002.58
2018-04-17T15:34:57.297Z,1002.60
2018-04-17T15:35:57.430Z,1002.56
2018-04-17T15:36:57.490Z,1002.57
2018-04-17T15:37:57.732Z,1002.59
2018-04-17T15:38:57.797Z,1002.58
2018-04-17T15:39:58.004Z,1002.58
2018-04-17T15:40:58.176Z,1002.59
2018-04-17T15:41:58.344Z,1002.55
2018-04-17T15:42:58.529Z,1002.55
2018-04-17T15:44:06.366Z,1002.56
2018-04-17T15:44:59.003Z,1002.57
2018-04-17T15:45:59.074Z,1002.51
2018-04-17T15:46:59.243Z,1002.50
2018-04-17T15:48:00.301Z,1002.50
2018-04-17T15:49:00.300Z,1002.49
2018-04-17T15:50:00.651Z,1002.52
2018-04-17T15:50:59.959Z,1002.49
2018-04-17T15:52:00.117Z,1002.52
2018-04-17T15:53:00.312Z,1002.55
2018-04-17T15:54:00.503Z,1002.53
2018-04-17T15:55:08.352Z,1002.53
2018-04-17T15:56:00.896Z,1002.54
2018-04-17T15:57:01.062Z,1002.62
2018-04-17T15:58:01.544Z,1002.62
2018-04-17T15:59:02.312Z,1002.63
2018-04-17T16:00:01.486Z,1002.60
2018-04-17T16:01:01.718Z,1002.61
2018-04-17T16:02:01.769Z,1002.62
2018-04-17T16:03:01.918Z,1002.63
2018-04-17T16:04:02.167Z,1002.65
2018-04-17T16:05:02.226Z,1002.66
2018-04-17T16:06:03.633Z,1002.61
2018-04-17T16:07:10.334Z,1002.59
2018-04-17T16:08:02.691Z,1002.64
2018-04-17T16:09:02.885Z,1002.64
2018-04-17T16:10:03.078Z,1002.62
2018-04-17T16:11:03.247Z,1002.64
2018-04-17T16:12:03.410Z,1002.65
2018-04-17T16:13:03.589Z,1002.70
2018-04-17T16:15:43.939Z,1002.67
2018-04-17T16:16:35.763Z,1002.63
2018-04-17T16:17:35.926Z,1002.66
2018-04-17T16:18:36.099Z,1002.69
2018-04-17T16:19:36.285Z,1002.68
2018-04-17T16:20:36.457Z,1002.68
2018-04-17T16:21:37.628Z,1002.67
2018-04-17T16:22:36.753Z,1002.66
2018-04-17T16:23:36.966Z,1002.66
2018-04-17T16:24:37.135Z,1002.70
2018-04-17T16:25:38.027Z,1002.70
2018-04-17T16:29:17.956Z,1002.78
2018-04-17T16:30:25.467Z,1002.74
2018-04-17T16:31:18.137Z,1002.81
2018-04-17T16:32:18.304Z,1002.78
2018-04-17T16:33:18.473Z,1002.82
2018-04-17T16:34:18.638Z,1002.79
2018-04-17T16:35:18.812Z,1002.75
2018-04-17T16:36:18.969Z,1002.75
2018-04-17T16:37:19.144Z,1002.76
2018-04-17T16:38:19.320Z,1002.78
2018-04-17T16:39:19.485Z,1002.78
2018-04-17T16:42:52.115Z,1002.83
2018-04-17T16:43:51.981Z,1002.82
2018-04-17T16:44:52.168Z,1002.86
2018-04-17T16:45:52.913Z,1002.84
2018-04-17T16:46:52.452Z,1002.86
2018-04-17T16:47:52.625Z,1002.85
2018-04-17T16:48:52.794Z,1002.87
2018-04-17T16:49:52.958Z,1002.87
2018-04-17T16:50:53.918Z,1002.88
2018-04-17T16:51:53.334Z,1002.89
2018-04-17T16:53:01.590Z,1002.90
2018-04-17T16:53:53.743Z,1002.91
2018-04-17T16:54:54.304Z,1002.91
2018-04-17T16:55:54.104Z,1002.94
2018-04-17T16:56:55.628Z,1002.95
2018-04-17T16:57:54.537Z,1002.93
2018-04-17T16:58:54.584Z,1003.01
2018-04-17T17:00:03.035Z,1002.95
2018-04-17T17:00:54.951Z,1002.98
2018-04-17T17:01:55.139Z,1003.02
2018-04-17T17:02:55.322Z,1003.01
2018-04-17T17:04:02.958Z,1003.02
2018-04-17T17:04:55.650Z,1003.01
2018-04-17T17:05:55.821Z,1003.03
2018-04-17T17:06:55.991Z,1003.05
2018-04-17T17:07:56.157Z,1003.08
2018-04-17T17:08:56.326Z,1003.06
2018-04-17T17:09:56.507Z,1003.10
2018-04-17T17:10:56.674Z,1003.09
2018-04-17T17:11:56.844Z,1003.10
2018-04-17T17:12:57.014Z,1003.08
2018-04-17T17:13:57.184Z,1003.16
2018-04-17T17:14:57.342Z,1003.15
2018-04-17T17:15:57.513Z,1003.14
2018-04-17T17:16:57.720Z,1003.12
2018-04-17T17:17:57.863Z,1003.20
2018-04-17T17:20:30.151Z,1003.17
2018-04-17T17:21:30.347Z,1003.15
2018-04-17T17:22:37.683Z,1003.17
2018-04-17T17:23:30.751Z,1003.18
2018-04-17T17:24:30.874Z,1003.19
2018-04-17T17:25:31.049Z,1003.21
2018-04-17T17:26:31.219Z,1003.23
2018-04-17T17:27:31.376Z,1003.26
2018-04-17T17:28:31.707Z,1003.24
2018-04-17T17:29:31.760Z,1003.21
2018-04-17T17:30:32.702Z,1003.25
2018-04-17T17:31:32.144Z,1003.29
2018-04-17T17:32:32.307Z,1003.33
2018-04-17T17:35:04.601Z,1003.35
2018-04-17T17:36:04.771Z,1003.30
2018-04-17T17:37:04.955Z,1003.30
2018-04-17T17:38:05.157Z,1003.35
2018-04-17T17:39:05.329Z,1003.37
2018-04-17T17:40:05.498Z,1003.35
2018-04-17T17:41:05.675Z,1003.36
2018-04-17T17:42:05.838Z,1003.36
2018-04-17T17:43:06.011Z,1003.38
2018-04-17T17:44:14.144Z,1003.37
2018-04-17T17:45:06.294Z,1003.38
2018-04-17T17:46:06.476Z,1003.34
2018-04-17T17:47:06.658Z,1003.39
2018-04-17T17:48:06.825Z,1003.43
2018-04-17T17:49:06.992Z,1003.43
2018-04-17T17:50:07.146Z,1003.46
2018-04-17T17:51:07.327Z,1003.45
2018-04-17T17:52:07.479Z,1003.47
2018-04-17T17:53:15.116Z,1003.50
2018-04-17T17:54:07.779Z,1003.49
2018-04-17T17:55:07.952Z,1003.52
2018-04-17T17:56:08.110Z,1003.50
2018-04-17T17:57:08.296Z,1003.52
2018-04-17T17:58:08.526Z,1003.58
2018-04-17T17:59:15.848Z,1003.63
2018-04-17T18:00:08.890Z,1003.60
2018-04-17T18:01:09.053Z,1003.64
2018-04-17T18:02:09.224Z,1003.66
2018-04-17T18:03:09.386Z,1003.68
2018-04-17T18:04:09.558Z,1003.68
2018-04-17T18:05:09.735Z,1003.66
2018-04-17T18:06:09.914Z,1003.68
2018-04-17T18:07:10.083Z,1003.74
2018-04-17T18:08:17.946Z,1003.74
2018-04-17T18:09:10.362Z,1003.75
2018-04-17T18:10:10.536Z,1003.78
2018-04-17T18:11:10.710Z,1003.77
2018-04-17T18:12:10.875Z,1003.79
2018-04-17T18:13:11.037Z,1003.80
2018-04-17T18:14:12.196Z,1003.87
2018-04-17T18:15:12.198Z,1003.94
2018-04-17T18:16:11.495Z,1003.91
2018-04-17T18:17:11.660Z,1003.93
2018-04-17T18:18:11.826Z,1003.97
2018-04-17T18:19:11.996Z,1003.95
2018-04-17T18:20:12.165Z,1003.98
2018-04-17T18:21:12.337Z,1004.02
2018-04-17T18:22:12.508Z,1004.01
2018-04-17T18:23:12.674Z,1004.01
2018-04-17T18:25:55.257Z,1004.10
2018-04-17T18:26:55.434Z,1004.10
2018-04-17T18:27:55.597Z,1004.14
2018-04-17T18:28:55.777Z,1004.16
2018-04-17T18:29:55.938Z,1004.10
2018-04-17T18:30:56.107Z,1004.15
2018-04-17T18:31:56.276Z,1004.16
2018-04-17T18:32:56.446Z,1004.15
2018-04-17T18:33:56.615Z,1004.20
2018-04-17T18:34:56.784Z,1004.16
2018-04-17T18:35:56.954Z,1004.19
2018-04-17T18:36:57.124Z,1004.23
2018-04-17T18:37:57.290Z,1004.24
2018-04-17T18:38:57.458Z,1004.21
2018-04-17T18:39:57.639Z,1004.21
2018-04-17T18:48:48.409Z,1004.34
2018-04-17T18:49:48.455Z,1004.37
2018-04-17T18:50:56.093Z,1004.40
2018-04-17T18:51:56.225Z,1004.40
2018-04-17T18:52:48.898Z,1004.41
2018-04-17T18:53:49.063Z,1004.45
2018-04-17T18:54:49.232Z,1004.46
2018-04-17T18:55:49.395Z,1004.47
2018-04-17T18:56:49.565Z,1004.47
2018-04-17T18:57:49.729Z,1004.52
2018-04-17T18:58:49.896Z,1004.53
2018-04-17T18:59:50.047Z,1004.56
2018-04-17T19:00:50.237Z,1004.59
2018-04-17T19:01:50.408Z,1004.58
2018-04-17T19:02:50.579Z,1004.60
2018-04-17T19:03:50.748Z,1004.61
2018-04-17T19:04:50.912Z,1004.63
2018-04-17T19:05:51.923Z,1004.66
2018-04-17T19:08:33.320Z,1004.75
2018-04-17T19:09:33.482Z,1004.75
2018-04-17T19:10:33.658Z,1004.75
2018-04-17T19:11:33.842Z,1004.78
2018-04-17T19:12:34.032Z,1004.83
2018-04-17T19:13:41.370Z,1004.80
2018-04-17T19:14:34.409Z,1004.79
2018-04-17T19:15:34.580Z,1004.76
2018-04-17T19:16:34.750Z,1004.78
2018-04-17T19:17:34.923Z,1004.78
2018-04-17T19:18:35.091Z,1004.83
2018-04-17T19:19:35.261Z,1004.81
2018-04-17T19:20:35.418Z,1004.79
2018-04-17T19:21:42.750Z,1004.80
2018-04-17T19:22:35.787Z,1004.82
2018-04-17T19:23:35.959Z,1004.81
2018-04-17T19:24:36.126Z,1004.84
2018-04-17T19:25:36.293Z,1004.86
2018-04-17T19:26:36.523Z,1004.91
2018-04-17T19:27:36.631Z,1004.94
2018-04-17T19:28:36.801Z,1004.90
2018-04-17T19:29:38.880Z,1004.90
2018-04-17T19:30:37.172Z,1004.94
2018-04-17T19:34:20.608Z,1004.92
2018-04-17T19:35:20.774Z,1004.95
2018-04-17T19:36:20.948Z,1004.96
2018-04-17T19:37:21.117Z,1004.97
2018-04-17T19:38:21.288Z,1004.98
2018-04-17T19:39:21.457Z,1004.97
2018-04-17T19:40:21.626Z,1005.00
2018-04-17T19:41:21.794Z,1005.05
2018-04-17T19:42:21.963Z,1005.04
2018-04-17T19:43:22.127Z,1005.11
2018-04-17T19:47:33.040Z,1005.11
2018-04-17T19:48:32.834Z,1005.09
2018-04-17T19:49:33.002Z,1005.08
2018-04-17T19:50:33.171Z,1005.06
2018-04-17T19:51:33.340Z,1005.07
2018-04-17T19:52:33.512Z,1005.08
2018-04-17T19:53:33.708Z,1005.10
2018-04-17T19:54:33.838Z,1005.12
2018-04-17T19:55:34.009Z,1005.16
2018-04-17T19:56:34.179Z,1005.15
2018-04-17T19:57:34.348Z,1005.19
2018-04-17T19:58:34.511Z,1005.16
2018-04-17T19:59:34.680Z,1005.15
2018-04-17T20:00:34.847Z,1005.15
2018-04-17T20:01:35.015Z,1005.14
2018-04-17T20:04:07.585Z,1005.14
2018-04-17T20:05:07.756Z,1005.19
2018-04-17T20:06:07.921Z,1005.25
2018-04-17T20:07:15.259Z,1005.21
2018-04-17T20:08:08.305Z,1005.26
2018-04-17T20:09:08.472Z,1005.23
2018-04-17T20:10:08.640Z,1005.27
2018-04-17T20:11:08.811Z,1005.23
2018-04-17T20:12:08.975Z,1005.26
2018-04-17T20:13:09.143Z,1005.27
2018-04-17T20:14:09.302Z,1005.28
2018-04-17T20:15:09.482Z,1005.26
2018-04-17T20:16:09.656Z,1005.19
2018-04-17T20:17:09.816Z,1005.25
2018-04-17T20:18:09.982Z,1005.25
2018-04-17T20:19:10.151Z,1005.26
2018-04-17T20:20:10.317Z,1005.25
2018-04-17T20:21:10.483Z,1005.28
2018-04-17T20:23:52.751Z,1005.31
2018-04-17T20:24:52.920Z,1005.36
2018-04-17T20:25:53.088Z,1005.35
2018-04-17T20:26:53.261Z,1005.39